sensor_id;sensor_type;location;lat;lon;timestamp;P1;durP1;ratioP1;P2;durP2;ratioP2
35188;SDS011;21762;54.480;18.556;2023-03-26T00:01:38;5.90;;;3.28;;
35188;SDS011;21762;54.480;18.556;2023-03-26T00:04:12;6.60;;;3.08;;
35188;SDS011;21762;54.480;18.556;2023-03-26T00:06:45;5.10;;;2.67;;
35188;SDS011;21762;54.480;18.556;2023-03-26T00:09:14;6.50;;;3.08;;
35188;SDS011;21762;54.480;18.556;2023-03-26T00:11:43;5.80;;;3.78;;
35188;SDS011;21762;54.480;18.556;2023-03-26T00:14:14;7.93;;;4.00;;
35188;SDS011;21762;54.480;18.556;2023-03-26T00:16:43;9.65;;;3.55;;
35188;SDS011;21762;54.480;18.556;2023-03-26T00:19:13;8.77;;;3.40;;
35188;SDS011;21762;54.480;18.556;2023-03-26T00:21:42;7.95;;;3.83;;
35188;SDS011;21762;54.480;18.556;2023-03-26T00:24:11;8.07;;;3.30;;
35188;SDS011;21762;54.480;18.556;2023-03-26T00:26:42;6.07;;;3.45;;
35188;SDS011;21762;54.480;18.556;2023-03-26T00:29:15;8.50;;;3.63;;
35188;SDS011;21762;54.480;18.556;2023-03-26T00:31:44;8.38;;;4.70;;
35188;SDS011;21762;54.480;18.556;2023-03-26T00:34:12;7.50;;;3.60;;
35188;SDS011;21762;54.480;18.556;2023-03-26T00:36:44;7.25;;;3.95;;
35188;SDS011;21762;54.480;18.556;2023-03-26T00:39:13;8.13;;;3.78;;
35188;SDS011;21762;54.480;18.556;2023-03-26T00:41:43;7.63;;;3.90;;
35188;SDS011;21762;54.480;18.556;2023-03-26T00:44:12;6.18;;;3.67;;
35188;SDS011;21762;54.480;18.556;2023-03-26T00:46:42;5.03;;;3.33;;
35188;SDS011;21762;54.480;18.556;2023-03-26T00:49:10;7.00;;;3.55;;
35188;SDS011;21762;54.480;18.556;2023-03-26T00:51:40;10.10;;;3.58;;
35188;SDS011;21762;54.480;18.556;2023-03-26T00:54:09;7.70;;;3.53;;
35188;SDS011;21762;54.480;18.556;2023-03-26T00:56:38;7.57;;;3.55;;
35188;SDS011;21762;54.480;18.556;2023-03-26T00:59:07;6.75;;;3.63;;
35188;SDS011;21762;54.480;18.556;2023-03-26T01:01:37;7.78;;;3.70;;
35188;SDS011;21762;54.480;18.556;2023-03-26T01:04:27;6.85;;;3.72;;
35188;SDS011;21762;54.480;18.556;2023-03-26T01:06:58;5.32;;;3.97;;
35188;SDS011;21762;54.480;18.556;2023-03-26T01:09:30;5.43;;;3.67;;
35188;SDS011;21762;54.480;18.556;2023-03-26T01:12:01;7.15;;;4.05;;
35188;SDS011;21762;54.480;18.556;2023-03-26T01:14:30;8.60;;;3.88;;
35188;SDS011;21762;54.480;18.556;2023-03-26T01:17:00;5.95;;;4.05;;
35188;SDS011;21762;54.480;18.556;2023-03-26T01:19:32;6.20;;;3.30;;
35188;SDS011;21762;54.480;18.556;2023-03-26T01:22:05;6.70;;;3.47;;
35188;SDS011;21762;54.480;18.556;2023-03-26T01:24:36;8.02;;;3.72;;
35188;SDS011;21762;54.480;18.556;2023-03-26T01:27:13;4.75;;;2.90;;
35188;SDS011;21762;54.480;18.556;2023-03-26T01:29:48;5.22;;;2.85;;
35188;SDS011;21762;54.480;18.556;2023-03-26T01:32:26;7.07;;;3.60;;
35188;SDS011;21762;54.480;18.556;2023-03-26T01:35:07;6.35;;;3.05;;
35188;SDS011;21762;54.480;18.556;2023-03-26T01:37:43;4.65;;;2.80;;
35188;SDS011;21762;54.480;18.556;2023-03-26T01:40:22;4.20;;;2.67;;
35188;SDS011;21762;54.480;18.556;2023-03-26T01:42:54;3.80;;;2.63;;
35188;SDS011;21762;54.480;18.556;2023-03-26T01:45:27;4.20;;;2.25;;
35188;SDS011;21762;54.480;18.556;2023-03-26T01:50:26;7.38;;;2.78;;
35188;SDS011;21762;54.480;18.556;2023-03-26T01:52:54;3.92;;;2.65;;
35188;SDS011;21762;54.480;18.556;2023-03-26T01:55:25;4.57;;;2.78;;
35188;SDS011;21762;54.480;18.556;2023-03-26T01:57:58;4.05;;;3.10;;
35188;SDS011;21762;54.480;18.556;2023-03-26T02:00:30;4.40;;;3.05;;
35188;SDS011;21762;54.480;18.556;2023-03-26T02:03:02;6.60;;;3.80;;
35188;SDS011;21762;54.480;18.556;2023-03-26T02:05:46;5.07;;;3.40;;
35188;SDS011;21762;54.480;18.556;2023-03-26T02:08:19;4.65;;;3.10;;
35188;SDS011;21762;54.480;18.556;2023-03-26T02:10:53;5.40;;;2.95;;
35188;SDS011;21762;54.480;18.556;2023-03-26T02:13:24;5.03;;;3.00;;
35188;SDS011;21762;54.480;18.556;2023-03-26T02:15:53;6.68;;;3.55;;
35188;SDS011;21762;54.480;18.556;2023-03-26T02:18:23;4.07;;;3.15;;
35188;SDS011;21762;54.480;18.556;2023-03-26T02:21:03;6.57;;;3.60;;
35188;SDS011;21762;54.480;18.556;2023-03-26T02:23:38;6.80;;;3.88;;
35188;SDS011;21762;54.480;18.556;2023-03-26T02:26:08;5.45;;;3.83;;
35188;SDS011;21762;54.480;18.556;2023-03-26T02:28:49;5.53;;;3.60;;
35188;SDS011;21762;54.480;18.556;2023-03-26T02:31:18;5.82;;;3.50;;
35188;SDS011;21762;54.480;18.556;2023-03-26T02:33:47;5.38;;;4.00;;
35188;SDS011;21762;54.480;18.556;2023-03-26T02:36:16;8.10;;;3.97;;
35188;SDS011;21762;54.480;18.556;2023-03-26T02:38:47;4.82;;;3.55;;
35188;SDS011;21762;54.480;18.556;2023-03-26T02:41:18;6.07;;;3.65;;
35188;SDS011;21762;54.480;18.556;2023-03-26T02:43:55;5.97;;;4.15;;
35188;SDS011;21762;54.480;18.556;2023-03-26T02:46:38;9.40;;;4.30;;
35188;SDS011;21762;54.480;18.556;2023-03-26T02:49:41;6.72;;;4.38;;
35188;SDS011;21762;54.480;18.556;2023-03-26T02:52:14;7.25;;;3.83;;
35188;SDS011;21762;54.480;18.556;2023-03-26T02:54:46;7.32;;;4.32;;
35188;SDS011;21762;54.480;18.556;2023-03-26T02:57:23;7.20;;;4.20;;
35188;SDS011;21762;54.480;18.556;2023-03-26T03:02:46;7.10;;;3.33;;
35188;SDS011;21762;54.480;18.556;2023-03-26T03:05:31;7.72;;;3.50;;
35188;SDS011;21762;54.480;18.556;2023-03-26T03:08:19;5.70;;;3.83;;
35188;SDS011;21762;54.480;18.556;2023-03-26T03:11:14;6.25;;;3.15;;
35188;SDS011;21762;54.480;18.556;2023-03-26T03:13:48;7.82;;;3.80;;
35188;SDS011;21762;54.480;18.556;2023-03-26T03:16:27;8.27;;;4.88;;
35188;SDS011;21762;54.480;18.556;2023-03-26T03:19:00;4.20;;;3.50;;
35188;SDS011;21762;54.480;18.556;2023-03-26T03:21:35;5.32;;;4.05;;
35188;SDS011;21762;54.480;18.556;2023-03-26T03:24:04;5.60;;;3.53;;
35188;SDS011;21762;54.480;18.556;2023-03-26T03:26:38;8.45;;;3.72;;
35188;SDS011;21762;54.480;18.556;2023-03-26T03:29:28;7.72;;;4.13;;
35188;SDS011;21762;54.480;18.556;2023-03-26T03:32:06;5.57;;;3.50;;
35188;SDS011;21762;54.480;18.556;2023-03-26T03:34:41;6.75;;;3.47;;
35188;SDS011;21762;54.480;18.556;2023-03-26T03:37:10;6.63;;;3.05;;
35188;SDS011;21762;54.480;18.556;2023-03-26T03:39:44;6.57;;;3.40;;
35188;SDS011;21762;54.480;18.556;2023-03-26T03:42:17;4.65;;;2.97;;
35188;SDS011;21762;54.480;18.556;2023-03-26T03:44:49;4.38;;;3.00;;
35188;SDS011;21762;54.480;18.556;2023-03-26T03:47:36;5.72;;;3.33;;
35188;SDS011;21762;54.480;18.556;2023-03-26T03:50:05;4.72;;;3.30;;
35188;SDS011;21762;54.480;18.556;2023-03-26T03:52:37;5.10;;;3.35;;
35188;SDS011;21762;54.480;18.556;2023-03-26T03:55:06;5.88;;;3.42;;
35188;SDS011;21762;54.480;18.556;2023-03-26T03:57:44;5.65;;;3.25;;
35188;SDS011;21762;54.480;18.556;2023-03-26T04:00:20;5.00;;;3.70;;
35188;SDS011;21762;54.480;18.556;2023-03-26T04:03:09;4.75;;;3.03;;
35188;SDS011;21762;54.480;18.556;2023-03-26T04:05:40;5.35;;;2.75;;
35188;SDS011;21762;54.480;18.556;2023-03-26T04:08:09;4.15;;;3.05;;
35188;SDS011;21762;54.480;18.556;2023-03-26T04:10:50;4.65;;;2.75;;
35188;SDS011;21762;54.480;18.556;2023-03-26T04:13:41;3.85;;;2.78;;
35188;SDS011;21762;54.480;18.556;2023-03-26T04:16:34;4.70;;;2.22;;
35188;SDS011;21762;54.480;18.556;2023-03-26T04:19:03;4.82;;;3.45;;
35188;SDS011;21762;54.480;18.556;2023-03-26T04:21:31;6.40;;;3.17;;
35188;SDS011;21762;54.480;18.556;2023-03-26T04:24:04;4.95;;;2.53;;
35188;SDS011;21762;54.480;18.556;2023-03-26T04:27:08;4.10;;;3.15;;
35188;SDS011;21762;54.480;18.556;2023-03-26T04:29:41;3.47;;;2.65;;
35188;SDS011;21762;54.480;18.556;2023-03-26T04:32:18;3.60;;;2.47;;
35188;SDS011;21762;54.480;18.556;2023-03-26T04:34:50;6.68;;;2.47;;
35188;SDS011;21762;54.480;18.556;2023-03-26T04:37:24;5.88;;;3.17;;
35188;SDS011;21762;54.480;18.556;2023-03-26T04:40:06;5.55;;;2.70;;
35188;SDS011;21762;54.480;18.556;2023-03-26T04:42:43;4.05;;;2.75;;
35188;SDS011;21762;54.480;18.556;2023-03-26T04:45:24;7.00;;;2.50;;
35188;SDS011;21762;54.480;18.556;2023-03-26T04:47:56;3.77;;;2.87;;
35188;SDS011;21762;54.480;18.556;2023-03-26T04:50:26;4.75;;;2.85;;
35188;SDS011;21762;54.480;18.556;2023-03-26T04:52:55;2.70;;;2.13;;
35188;SDS011;21762;54.480;18.556;2023-03-26T04:55:48;6.38;;;3.38;;
35188;SDS011;21762;54.480;18.556;2023-03-26T04:58:34;7.03;;;2.53;;
35188;SDS011;21762;54.480;18.556;2023-03-26T05:01:03;4.20;;;2.88;;
35188;SDS011;21762;54.480;18.556;2023-03-26T05:03:35;4.88;;;2.90;;
35188;SDS011;21762;54.480;18.556;2023-03-26T05:06:08;3.83;;;2.60;;
35188;SDS011;21762;54.480;18.556;2023-03-26T05:08:38;4.90;;;2.83;;
35188;SDS011;21762;54.480;18.556;2023-03-26T05:11:11;6.68;;;2.78;;
35188;SDS011;21762;54.480;18.556;2023-03-26T05:13:40;5.82;;;2.67;;
35188;SDS011;21762;54.480;18.556;2023-03-26T05:16:11;5.18;;;3.30;;
35188;SDS011;21762;54.480;18.556;2023-03-26T05:18:48;3.97;;;2.72;;
35188;SDS011;21762;54.480;18.556;2023-03-26T05:21:17;4.30;;;2.97;;
35188;SDS011;21762;54.480;18.556;2023-03-26T05:23:46;5.63;;;2.83;;
35188;SDS011;21762;54.480;18.556;2023-03-26T05:26:19;5.97;;;2.95;;
35188;SDS011;21762;54.480;18.556;2023-03-26T05:28:48;4.22;;;2.58;;
35188;SDS011;21762;54.480;18.556;2023-03-26T05:31:23;4.35;;;2.58;;
35188;SDS011;21762;54.480;18.556;2023-03-26T05:33:57;4.00;;;2.40;;
35188;SDS011;21762;54.480;18.556;2023-03-26T05:36:26;4.47;;;2.33;;
35188;SDS011;21762;54.480;18.556;2023-03-26T05:39:18;3.28;;;2.28;;
35188;SDS011;21762;54.480;18.556;2023-03-26T05:42:17;4.05;;;2.03;;
35188;SDS011;21762;54.480;18.556;2023-03-26T05:45:09;5.20;;;4.00;;
35188;SDS011;21762;54.480;18.556;2023-03-26T05:47:39;4.28;;;3.05;;
35188;SDS011;21762;54.480;18.556;2023-03-26T05:50:10;4.72;;;2.50;;
35188;SDS011;21762;54.480;18.556;2023-03-26T05:52:42;4.20;;;2.28;;
35188;SDS011;21762;54.480;18.556;2023-03-26T05:55:30;6.22;;;2.67;;
35188;SDS011;21762;54.480;18.556;2023-03-26T05:58:17;2.92;;;1.70;;
35188;SDS011;21762;54.480;18.556;2023-03-26T06:01:09;2.25;;;1.77;;
35188;SDS011;21762;54.480;18.556;2023-03-26T06:04:05;2.97;;;1.90;;
35188;SDS011;21762;54.480;18.556;2023-03-26T06:06:39;2.20;;;1.60;;
35188;SDS011;21762;54.480;18.556;2023-03-26T06:09:08;1.92;;;1.48;;
35188;SDS011;21762;54.480;18.556;2023-03-26T06:11:40;4.05;;;1.58;;
35188;SDS011;21762;54.480;18.556;2023-03-26T06:14:09;2.47;;;1.50;;
35188;SDS011;21762;54.480;18.556;2023-03-26T06:16:44;3.80;;;1.60;;
35188;SDS011;21762;54.480;18.556;2023-03-26T06:19:20;3.22;;;1.90;;
35188;SDS011;21762;54.480;18.556;2023-03-26T06:21:56;4.15;;;1.92;;
35188;SDS011;21762;54.480;18.556;2023-03-26T06:24:29;2.88;;;1.65;;
35188;SDS011;21762;54.480;18.556;2023-03-26T06:27:18;3.33;;;1.77;;
35188;SDS011;21762;54.480;18.556;2023-03-26T06:30:12;3.08;;;2.17;;
35188;SDS011;21762;54.480;18.556;2023-03-26T06:32:51;3.92;;;2.05;;
35188;SDS011;21762;54.480;18.556;2023-03-26T06:35:24;5.82;;;2.10;;
35188;SDS011;21762;54.480;18.556;2023-03-26T06:37:54;4.82;;;2.90;;
35188;SDS011;21762;54.480;18.556;2023-03-26T06:40:23;6.10;;;3.28;;
35188;SDS011;21762;54.480;18.556;2023-03-26T06:42:54;5.70;;;2.65;;
35188;SDS011;21762;54.480;18.556;2023-03-26T06:45:42;5.10;;;2.85;;
35188;SDS011;21762;54.480;18.556;2023-03-26T06:48:33;3.60;;;2.42;;
35188;SDS011;21762;54.480;18.556;2023-03-26T06:51:34;4.32;;;1.90;;
35188;SDS011;21762;54.480;18.556;2023-03-26T06:54:17;5.13;;;2.50;;
35188;SDS011;21762;54.480;18.556;2023-03-26T06:56:55;4.93;;;2.38;;
35188;SDS011;21762;54.480;18.556;2023-03-26T06:59:43;2.92;;;1.70;;
35188;SDS011;21762;54.480;18.556;2023-03-26T07:02:30;3.08;;;1.60;;
35188;SDS011;21762;54.480;18.556;2023-03-26T07:05:17;1.40;;;1.30;;
35188;SDS011;21762;54.480;18.556;2023-03-26T07:08:04;1.92;;;1.35;;
35188;SDS011;21762;54.480;18.556;2023-03-26T07:10:53;4.20;;;1.42;;
35188;SDS011;21762;54.480;18.556;2023-03-26T07:13:31;2.65;;;1.23;;
35188;SDS011;21762;54.480;18.556;2023-03-26T07:15:59;2.60;;;1.40;;
35188;SDS011;21762;54.480;18.556;2023-03-26T07:18:54;3.22;;;1.63;;
35188;SDS011;21762;54.480;18.556;2023-03-26T07:21:28;4.00;;;1.50;;
35188;SDS011;21762;54.480;18.556;2023-03-26T07:23:58;1.88;;;1.20;;
35188;SDS011;21762;54.480;18.556;2023-03-26T07:27:00;1.58;;;1.10;;
35188;SDS011;21762;54.480;18.556;2023-03-26T07:29:39;6.78;;;1.10;;
35188;SDS011;21762;54.480;18.556;2023-03-26T07:32:31;1.92;;;1.27;;
35188;SDS011;21762;54.480;18.556;2023-03-26T07:35:17;1.52;;;0.93;;
35188;SDS011;21762;54.480;18.556;2023-03-26T07:38:11;3.15;;;1.40;;
35188;SDS011;21762;54.480;18.556;2023-03-26T07:40:57;2.55;;;1.10;;
35188;SDS011;21762;54.480;18.556;2023-03-26T07:43:36;2.95;;;1.10;;
35188;SDS011;21762;54.480;18.556;2023-03-26T07:46:41;2.75;;;1.10;;
35188;SDS011;21762;54.480;18.556;2023-03-26T07:52:15;1.73;;;0.90;;
35188;SDS011;21762;54.480;18.556;2023-03-26T07:55:03;1.88;;;1.15;;
35188;SDS011;21762;54.480;18.556;2023-03-26T07:57:58;1.92;;;1.33;;
35188;SDS011;21762;54.480;18.556;2023-03-26T08:01:01;2.50;;;1.40;;
35188;SDS011;21762;54.480;18.556;2023-03-26T08:03:44;2.10;;;1.10;;
35188;SDS011;21762;54.480;18.556;2023-03-26T08:06:38;2.13;;;1.25;;
35188;SDS011;21762;54.480;18.556;2023-03-26T08:09:32;1.75;;;0.95;;
35188;SDS011;21762;54.480;18.556;2023-03-26T08:12:35;1.02;;;0.70;;
35188;SDS011;21762;54.480;18.556;2023-03-26T08:15:10;2.25;;;0.85;;
35188;SDS011;21762;54.480;18.556;2023-03-26T08:17:43;1.58;;;1.00;;
35188;SDS011;21762;54.480;18.556;2023-03-26T08:20:18;3.97;;;1.50;;
35188;SDS011;21762;54.480;18.556;2023-03-26T08:22:52;1.85;;;1.30;;
35188;SDS011;21762;54.480;18.556;2023-03-26T08:25:24;1.40;;;1.00;;
35188;SDS011;21762;54.480;18.556;2023-03-26T08:28:00;1.67;;;0.93;;
35188;SDS011;21762;54.480;18.556;2023-03-26T08:30:33;1.10;;;0.80;;
35188;SDS011;21762;54.480;18.556;2023-03-26T08:33:10;1.85;;;0.75;;
35188;SDS011;21762;54.480;18.556;2023-03-26T08:35:40;2.35;;;0.60;;
35188;SDS011;21762;54.480;18.556;2023-03-26T08:38:09;2.75;;;0.70;;
35188;SDS011;21762;54.480;18.556;2023-03-26T08:40:55;1.02;;;0.57;;
35188;SDS011;21762;54.480;18.556;2023-03-26T08:56:05;4.75;;;0.75;;
35188;SDS011;21762;54.480;18.556;2023-03-26T09:02:18;0.88;;;0.60;;
35188;SDS011;21762;54.480;18.556;2023-03-26T09:05:00;1.13;;;0.80;;
35188;SDS011;21762;54.480;18.556;2023-03-26T09:08:04;1.23;;;0.68;;
35188;SDS011;21762;54.480;18.556;2023-03-26T09:14:09;1.88;;;0.60;;
35188;SDS011;21762;54.480;18.556;2023-03-26T09:22:55;1.60;;;0.50;;
35188;SDS011;21762;54.480;18.556;2023-03-26T09:25:40;1.40;;;0.52;;
35188;SDS011;21762;54.480;18.556;2023-03-26T09:28:28;0.73;;;0.40;;
35188;SDS011;21762;54.480;18.556;2023-03-26T09:34:06;0.80;;;0.40;;
35188;SDS011;21762;54.480;18.556;2023-03-26T09:36:49;0.77;;;0.65;;
35188;SDS011;21762;54.480;18.556;2023-03-26T09:39:31;0.50;;;0.40;;
35188;SDS011;21762;54.480;18.556;2023-03-26T09:42:07;0.63;;;0.30;;
35188;SDS011;21762;54.480;18.556;2023-03-26T09:44:50;0.95;;;0.47;;
35188;SDS011;21762;54.480;18.556;2023-03-26T09:50:36;0.52;;;0.32;;
35188;SDS011;21762;54.480;18.556;2023-03-26T09:53:23;2.60;;;0.90;;
35188;SDS011;21762;54.480;18.556;2023-03-26T09:56:13;1.73;;;0.70;;
35188;SDS011;21762;54.480;18.556;2023-03-26T09:59:00;0.82;;;0.57;;
35188;SDS011;21762;54.480;18.556;2023-03-26T10:01:36;1.65;;;0.60;;
35188;SDS011;21762;54.480;18.556;2023-03-26T10:07:06;0.85;;;0.32;;
35188;SDS011;21762;54.480;18.556;2023-03-26T10:09:45;0.40;;;0.28;;
35188;SDS011;21762;54.480;18.556;2023-03-26T10:12:22;0.80;;;0.68;;
35188;SDS011;21762;54.480;18.556;2023-03-26T10:15:00;3.63;;;1.08;;
35188;SDS011;21762;54.480;18.556;2023-03-26T10:17:37;1.70;;;0.70;;
35188;SDS011;21762;54.480;18.556;2023-03-26T10:20:20;3.88;;;0.95;;
35188;SDS011;21762;54.480;18.556;2023-03-26T10:22:59;1.55;;;1.05;;
35188;SDS011;21762;54.480;18.556;2023-03-26T10:25:41;3.42;;;1.27;;
35188;SDS011;21762;54.480;18.556;2023-03-26T10:28:22;2.40;;;1.70;;
35188;SDS011;21762;54.480;18.556;2023-03-26T10:31:04;5.25;;;1.38;;
35188;SDS011;21762;54.480;18.556;2023-03-26T10:33:49;3.70;;;1.70;;
35188;SDS011;21762;54.480;18.556;2023-03-26T10:36:29;5.57;;;1.52;;
35188;SDS011;21762;54.480;18.556;2023-03-26T10:39:02;2.53;;;1.27;;
35188;SDS011;21762;54.480;18.556;2023-03-26T10:41:42;4.95;;;1.10;;
35188;SDS011;21762;54.480;18.556;2023-03-26T10:47:21;7.90;;;1.77;;
35188;SDS011;21762;54.480;18.556;2023-03-26T10:50:22;4.10;;;1.85;;
35188;SDS011;21762;54.480;18.556;2023-03-26T10:52:57;5.20;;;1.55;;
35188;SDS011;21762;54.480;18.556;2023-03-26T10:55:28;5.97;;;1.63;;
35188;SDS011;21762;54.480;18.556;2023-03-26T10:57:59;5.75;;;1.80;;
35188;SDS011;21762;54.480;18.556;2023-03-26T11:00:34;3.65;;;1.23;;
35188;SDS011;21762;54.480;18.556;2023-03-26T11:03:10;4.95;;;1.40;;
35188;SDS011;21762;54.480;18.556;2023-03-26T11:05:49;5.53;;;2.13;;
35188;SDS011;21762;54.480;18.556;2023-03-26T11:08:23;6.38;;;2.45;;
35188;SDS011;21762;54.480;18.556;2023-03-26T11:13:24;2.47;;;1.02;;
35188;SDS011;21762;54.480;18.556;2023-03-26T11:16:05;6.45;;;2.05;;
35188;SDS011;21762;54.480;18.556;2023-03-26T11:18:38;8.70;;;1.67;;
35188;SDS011;21762;54.480;18.556;2023-03-26T11:21:13;5.80;;;2.15;;
35188;SDS011;21762;54.480;18.556;2023-03-26T11:23:48;6.72;;;2.13;;
35188;SDS011;21762;54.480;18.556;2023-03-26T11:26:23;7.75;;;1.90;;
35188;SDS011;21762;54.480;18.556;2023-03-26T11:29:00;5.20;;;2.25;;
35188;SDS011;21762;54.480;18.556;2023-03-26T11:31:38;6.57;;;2.40;;
35188;SDS011;21762;54.480;18.556;2023-03-26T11:34:13;9.10;;;1.80;;
35188;SDS011;21762;54.480;18.556;2023-03-26T11:36:44;3.90;;;1.85;;
35188;SDS011;21762;54.480;18.556;2023-03-26T11:39:14;2.95;;;1.30;;
35188;SDS011;21762;54.480;18.556;2023-03-26T11:41:48;3.83;;;1.60;;
35188;SDS011;21762;54.480;18.556;2023-03-26T11:44:23;5.85;;;1.23;;
35188;SDS011;21762;54.480;18.556;2023-03-26T11:46:55;4.10;;;1.80;;
35188;SDS011;21762;54.480;18.556;2023-03-26T11:49:29;6.30;;;1.63;;
35188;SDS011;21762;54.480;18.556;2023-03-26T11:51:58;2.33;;;1.10;;
35188;SDS011;21762;54.480;18.556;2023-03-26T11:54:28;6.30;;;1.88;;
35188;SDS011;21762;54.480;18.556;2023-03-26T11:57:01;4.05;;;1.60;;
35188;SDS011;21762;54.480;18.556;2023-03-26T11:59:33;6.30;;;2.53;;
35188;SDS011;21762;54.480;18.556;2023-03-26T12:02:17;5.13;;;1.80;;
35188;SDS011;21762;54.480;18.556;2023-03-26T12:04:51;5.30;;;1.90;;
35188;SDS011;21762;54.480;18.556;2023-03-26T12:07:21;7.22;;;2.17;;
35188;SDS011;21762;54.480;18.556;2023-03-26T12:09:51;6.35;;;2.00;;
35188;SDS011;21762;54.480;18.556;2023-03-26T12:12:20;7.85;;;2.20;;
35188;SDS011;21762;54.480;18.556;2023-03-26T12:14:51;2.53;;;1.08;;
35188;SDS011;21762;54.480;18.556;2023-03-26T12:17:26;1.75;;;1.27;;
35188;SDS011;21762;54.480;18.556;2023-03-26T12:19:57;3.45;;;1.30;;
35188;SDS011;21762;54.480;18.556;2023-03-26T12:22:27;5.65;;;1.70;;
35188;SDS011;21762;54.480;18.556;2023-03-26T12:25:01;4.22;;;1.50;;
35188;SDS011;21762;54.480;18.556;2023-03-26T12:27:41;4.05;;;1.92;;
35188;SDS011;21762;54.480;18.556;2023-03-26T12:30:17;7.38;;;1.67;;
35188;SDS011;21762;54.480;18.556;2023-03-26T12:32:56;4.05;;;2.00;;
35188;SDS011;21762;54.480;18.556;2023-03-26T12:35:30;3.10;;;1.50;;
35188;SDS011;21762;54.480;18.556;2023-03-26T12:41:01;2.58;;;1.15;;
35188;SDS011;21762;54.480;18.556;2023-03-26T12:43:35;2.65;;;1.30;;
35188;SDS011;21762;54.480;18.556;2023-03-26T12:46:18;2.58;;;0.90;;
35188;SDS011;21762;54.480;18.556;2023-03-26T12:48:51;4.00;;;1.38;;
35188;SDS011;21762;54.480;18.556;2023-03-26T12:51:24;2.53;;;1.30;;
35188;SDS011;21762;54.480;18.556;2023-03-26T12:54:12;5.03;;;1.33;;
35188;SDS011;21762;54.480;18.556;2023-03-26T12:56:50;2.55;;;1.08;;
35188;SDS011;21762;54.480;18.556;2023-03-26T12:59:39;2.45;;;1.15;;
35188;SDS011;21762;54.480;18.556;2023-03-26T13:02:18;3.60;;;1.38;;
35188;SDS011;21762;54.480;18.556;2023-03-26T13:05:02;3.10;;;2.28;;
35188;SDS011;21762;54.480;18.556;2023-03-26T13:07:41;3.55;;;1.60;;
35188;SDS011;21762;54.480;18.556;2023-03-26T13:10:24;5.60;;;1.95;;
35188;SDS011;21762;54.480;18.556;2023-03-26T13:12:59;6.93;;;2.50;;
35188;SDS011;21762;54.480;18.556;2023-03-26T13:15:38;5.68;;;1.92;;
35188;SDS011;21762;54.480;18.556;2023-03-26T13:18:14;5.25;;;1.88;;
35188;SDS011;21762;54.480;18.556;2023-03-26T13:20:52;4.45;;;2.25;;
35188;SDS011;21762;54.480;18.556;2023-03-26T13:23:27;3.92;;;2.10;;
35188;SDS011;21762;54.480;18.556;2023-03-26T13:26:01;2.05;;;0.80;;
35188;SDS011;21762;54.480;18.556;2023-03-26T13:28:39;6.28;;;1.30;;
35188;SDS011;21762;54.480;18.556;2023-03-26T13:31:13;4.00;;;0.98;;
35188;SDS011;21762;54.480;18.556;2023-03-26T13:33:49;3.80;;;1.60;;
35188;SDS011;21762;54.480;18.556;2023-03-26T13:36:25;3.20;;;1.20;;
35188;SDS011;21762;54.480;18.556;2023-03-26T13:39:02;3.88;;;1.30;;
35188;SDS011;21762;54.480;18.556;2023-03-26T13:41:42;1.55;;;1.00;;
35188;SDS011;21762;54.480;18.556;2023-03-26T13:44:17;4.95;;;1.52;;
35188;SDS011;21762;54.480;18.556;2023-03-26T13:46:51;5.93;;;1.15;;
35188;SDS011;21762;54.480;18.556;2023-03-26T13:49:26;6.13;;;1.80;;
35188;SDS011;21762;54.480;18.556;2023-03-26T13:52:01;4.70;;;1.30;;
35188;SDS011;21762;54.480;18.556;2023-03-26T13:54:32;5.53;;;1.10;;
35188;SDS011;21762;54.480;18.556;2023-03-26T13:57:04;3.72;;;1.20;;
35188;SDS011;21762;54.480;18.556;2023-03-26T13:59:34;3.97;;;1.60;;
35188;SDS011;21762;54.480;18.556;2023-03-26T14:02:07;2.47;;;1.45;;
35188;SDS011;21762;54.480;18.556;2023-03-26T14:04:41;4.28;;;1.30;;
35188;SDS011;21762;54.480;18.556;2023-03-26T14:07:15;5.20;;;0.85;;
35188;SDS011;21762;54.480;18.556;2023-03-26T14:09:50;3.08;;;1.00;;
35188;SDS011;21762;54.480;18.556;2023-03-26T14:12:28;2.72;;;1.08;;
35188;SDS011;21762;54.480;18.556;2023-03-26T14:15:01;6.18;;;1.05;;
35188;SDS011;21762;54.480;18.556;2023-03-26T14:17:33;3.58;;;1.33;;
35188;SDS011;21762;54.480;18.556;2023-03-26T14:20:25;3.58;;;1.20;;
35188;SDS011;21762;54.480;18.556;2023-03-26T14:23:05;4.68;;;1.48;;
35188;SDS011;21762;54.480;18.556;2023-03-26T14:25:48;7.43;;;1.92;;
35188;SDS011;21762;54.480;18.556;2023-03-26T14:28:47;2.47;;;1.38;;
35188;SDS011;21762;54.480;18.556;2023-03-26T14:31:22;6.03;;;1.60;;
35188;SDS011;21762;54.480;18.556;2023-03-26T14:34:00;3.80;;;1.00;;
35188;SDS011;21762;54.480;18.556;2023-03-26T14:36:51;1.30;;;0.85;;
35188;SDS011;21762;54.480;18.556;2023-03-26T14:39:41;4.50;;;1.27;;
35188;SDS011;21762;54.480;18.556;2023-03-26T14:42:46;2.35;;;1.27;;
35188;SDS011;21762;54.480;18.556;2023-03-26T14:45:28;2.72;;;1.10;;
35188;SDS011;21762;54.480;18.556;2023-03-26T14:51:32;3.70;;;0.93;;
35188;SDS011;21762;54.480;18.556;2023-03-26T14:54:08;2.70;;;1.02;;
35188;SDS011;21762;54.480;18.556;2023-03-26T14:56:47;2.47;;;0.90;;
35188;SDS011;21762;54.480;18.556;2023-03-26T15:05:26;3.38;;;0.93;;
35188;SDS011;21762;54.480;18.556;2023-03-26T15:08:38;3.03;;;0.73;;
35188;SDS011;21762;54.480;18.556;2023-03-26T15:11:30;4.53;;;1.00;;
35188;SDS011;21762;54.480;18.556;2023-03-26T15:14:09;3.50;;;1.08;;
35188;SDS011;21762;54.480;18.556;2023-03-26T15:19:53;5.03;;;1.15;;
35188;SDS011;21762;54.480;18.556;2023-03-26T15:22:50;5.15;;;1.70;;
35188;SDS011;21762;54.480;18.556;2023-03-26T15:29:00;3.38;;;1.27;;
35188;SDS011;21762;54.480;18.556;2023-03-26T15:31:36;5.55;;;1.40;;
35188;SDS011;21762;54.480;18.556;2023-03-26T15:34:22;7.18;;;1.58;;
35188;SDS011;21762;54.480;18.556;2023-03-26T15:40:34;4.25;;;1.42;;
35188;SDS011;21762;54.480;18.556;2023-03-26T15:43:09;3.50;;;1.40;;
35188;SDS011;21762;54.480;18.556;2023-03-26T15:45:38;3.50;;;1.45;;
35188;SDS011;21762;54.480;18.556;2023-03-26T15:51:11;10.93;;;1.92;;
35188;SDS011;21762;54.480;18.556;2023-03-26T15:53:45;7.50;;;2.63;;
35188;SDS011;21762;54.480;18.556;2023-03-26T15:56:19;8.10;;;1.50;;
35188;SDS011;21762;54.480;18.556;2023-03-26T15:58:55;8.60;;;1.90;;
35188;SDS011;21762;54.480;18.556;2023-03-26T16:01:31;5.38;;;1.73;;
35188;SDS011;21762;54.480;18.556;2023-03-26T16:04:28;15.02;;;2.05;;
35188;SDS011;21762;54.480;18.556;2023-03-26T16:07:09;11.32;;;2.15;;
35188;SDS011;21762;54.480;18.556;2023-03-26T16:09:54;11.00;;;2.13;;
35188;SDS011;21762;54.480;18.556;2023-03-26T16:12:27;8.63;;;2.25;;
35188;SDS011;21762;54.480;18.556;2023-03-26T16:15:13;6.70;;;2.22;;
35188;SDS011;21762;54.480;18.556;2023-03-26T16:21:02;11.55;;;2.60;;
35188;SDS011;21762;54.480;18.556;2023-03-26T16:23:53;8.07;;;2.35;;
35188;SDS011;21762;54.480;18.556;2023-03-26T16:26:24;6.03;;;1.98;;
35188;SDS011;21762;54.480;18.556;2023-03-26T16:31:55;10.52;;;2.35;;
35188;SDS011;21762;54.480;18.556;2023-03-26T16:34:27;9.38;;;1.70;;
35188;SDS011;21762;54.480;18.556;2023-03-26T16:36:59;8.95;;;2.72;;
35188;SDS011;21762;54.480;18.556;2023-03-26T16:39:37;11.70;;;3.17;;
35188;SDS011;21762;54.480;18.556;2023-03-26T16:42:19;11.98;;;2.40;;
35188;SDS011;21762;54.480;18.556;2023-03-26T16:44:57;9.93;;;2.08;;
35188;SDS011;21762;54.480;18.556;2023-03-26T16:47:33;10.65;;;1.83;;
35188;SDS011;21762;54.480;18.556;2023-03-26T16:50:09;10.98;;;2.22;;
35188;SDS011;21762;54.480;18.556;2023-03-26T16:52:48;9.38;;;2.10;;
35188;SDS011;21762;54.480;18.556;2023-03-26T16:55:19;11.93;;;2.10;;